createdAt,value
2023-04-26T00:02:11.025Z,13.74
2023-04-26T00:07:15.972Z,13.70
2023-04-26T00:12:19.597Z,13.61
2023-04-26T00:17:25.159Z,13.59
2023-04-26T00:22:29.005Z,13.49
2023-04-26T00:27:32.583Z,13.47
2023-04-26T00:32:37.691Z,13.34
2023-04-26T00:37:41.729Z,13.22
2023-04-26T00:42:45.210Z,13.20
2023-04-26T00:47:50.215Z,13.23
2023-04-26T00:52:54.193Z,13.20
2023-04-26T00:57:57.872Z,13.22
2023-04-26T01:03:03.201Z,13.28
2023-04-26T01:08:08.114Z,13.13
2023-04-26T01:13:11.820Z,13.01
2023-04-26T01:18:16.680Z,12.99
2023-04-26T01:23:21.665Z,12.99
2023-04-26T01:28:25.246Z,12.91
2023-04-26T01:33:28.731Z,12.92
2023-04-26T01:38:33.628Z,12.88
2023-04-26T01:43:37.336Z,12.87
2023-04-26T01:48:40.850Z,12.91
2023-04-26T01:53:45.739Z,12.73
2023-04-26T01:58:49.379Z,12.80
2023-04-26T02:03:53.656Z,12.90
2023-04-26T02:08:59.103Z,12.94
2023-04-26T02:14:02.624Z,12.88
2023-04-26T02:19:11.070Z,12.87
2023-04-26T02:24:16.052Z,12.84
2023-04-26T02:29:24.628Z,12.84
2023-04-26T02:34:39.610Z,12.83
2023-04-26T02:39:44.509Z,12.85
2023-04-26T02:44:48.408Z,12.86
2023-04-26T02:49:52.797Z,12.86
2023-04-26T02:54:58.028Z,12.95
2023-04-26T03:00:01.542Z,13.01
2023-04-26T03:05:07.954Z,12.95
2023-04-26T03:10:13.486Z,13.13
2023-04-26T03:15:17.172Z,13.14
2023-04-26T03:20:21.074Z,13.14
2023-04-26T03:25:26.072Z,13.17
2023-04-26T03:30:29.572Z,13.28
2023-04-26T03:35:33.092Z,13.29
2023-04-26T03:40:37.964Z,13.15
2023-04-26T03:45:41.578Z,13.12
2023-04-26T03:50:46.646Z,13.18
2023-04-26T03:55:51.546Z,13.20
2023-04-26T04:00:58.218Z,13.27
2023-04-26T04:06:01.896Z,13.26
2023-04-26T04:11:07.096Z,13.29
2023-04-26T04:16:10.865Z,13.23
2023-04-26T04:21:14.513Z,13.30
2023-04-26T04:26:19.414Z,13.20
2023-04-26T04:31:23.069Z,13.04
2023-04-26T04:36:26.995Z,12.89
2023-04-26T04:41:32.465Z,12.78
2023-04-26T04:46:36.105Z,12.76
2023-04-26T04:51:39.784Z,12.82
2023-04-26T04:56:45.130Z,12.74
2023-04-26T05:01:48.857Z,12.86
2023-04-26T05:06:52.496Z,12.78
2023-04-26T05:11:57.400Z,12.89
2023-04-26T05:17:00.950Z,12.82
2023-04-26T05:22:04.767Z,12.84
2023-04-26T05:27:09.593Z,12.74
2023-04-26T05:32:13.274Z,12.79
2023-04-26T05:37:17.402Z,12.77
2023-04-26T05:42:22.451Z,12.88
2023-04-26T05:47:26.255Z,12.74
2023-04-26T05:52:30.003Z,12.93
2023-04-26T05:57:35.703Z,13.07
2023-04-26T06:02:39.299Z,13.18
2023-04-26T06:07:42.829Z,13.26
2023-04-26T06:12:48.340Z,13.30
2023-04-26T06:17:51.905Z,13.25
2023-04-26T06:22:55.775Z,13.28
2023-04-26T06:28:01.107Z,13.17
2023-04-26T06:33:04.825Z,13.41
2023-04-26T06:38:08.436Z,13.45
2023-04-26T06:43:13.301Z,13.53
2023-04-26T06:48:16.729Z,13.48
2023-04-26T06:53:22.406Z,13.35
2023-04-26T06:58:28.041Z,13.46
2023-04-26T07:03:32.889Z,13.44
2023-04-26T07:08:36.565Z,13.60
2023-04-26T07:13:41.472Z,13.58
2023-04-26T07:18:45.152Z,13.65
2023-04-26T07:23:48.630Z,13.83
2023-04-26T07:28:54.191Z,13.96
2023-04-26T07:33:57.828Z,14.10
2023-04-26T07:39:01.441Z,14.28
2023-04-26T07:44:06.860Z,14.61
2023-04-26T07:49:10.542Z,14.80
2023-04-26T07:54:14.241Z,14.90
2023-04-26T07:59:19.161Z,15.04
2023-04-26T08:04:33.882Z,15.33
2023-04-26T08:09:37.856Z,15.54
2023-04-26T08:14:42.917Z,15.70
2023-04-26T08:19:46.648Z,15.96
2023-04-26T08:24:51.284Z,15.97
2023-04-26T08:29:56.194Z,16.32
2023-04-26T08:34:59.663Z,16.64
2023-04-26T08:40:03.569Z,16.87
2023-04-26T08:45:11.674Z,16.80
2023-04-26T08:50:17.152Z,16.26
2023-04-26T08:55:22.258Z,16.03
2023-04-26T09:00:27.768Z,16.15
2023-04-26T09:05:31.349Z,16.32
2023-04-26T09:10:35.614Z,16.63
2023-04-26T09:15:40.677Z,17.27
2023-04-26T09:20:45.784Z,17.21
2023-04-26T09:25:49.872Z,16.87
2023-04-26T09:30:54.929Z,16.91
2023-04-26T09:36:13.139Z,17.12
2023-04-26T09:41:16.753Z,17.05
2023-04-26T09:46:25.362Z,17.23
2023-04-26T09:51:29.504Z,17.94
2023-04-26T09:56:33.057Z,18.45
2023-04-26T10:01:38.723Z,19.26
2023-04-26T10:06:42.403Z,19.51
2023-04-26T10:11:45.974Z,18.97
2023-04-26T10:16:51.646Z,18.18
2023-04-26T10:21:59.889Z,17.21
2023-04-26T10:27:04.501Z,16.63
2023-04-26T10:32:16.734Z,16.94
2023-04-26T10:37:20.739Z,17.42
2023-04-26T10:42:27.359Z,17.86
2023-04-26T10:47:34.509Z,17.94
2023-04-26T10:52:39.908Z,17.99
2023-04-26T10:57:51.599Z,18.10
2023-04-26T11:02:59.301Z,17.98
2023-04-26T11:08:07.070Z,18.10
2023-04-26T11:13:11.109Z,18.41
2023-04-26T11:18:20.391Z,18.51
2023-04-26T11:23:24.761Z,18.23
2023-04-26T11:28:28.256Z,18.03
2023-04-26T11:33:34.729Z,17.82
2023-04-26T11:38:39.775Z,17.70
2023-04-26T11:43:43.280Z,17.80
2023-04-26T11:48:48.482Z,17.73
2023-04-26T11:53:53.086Z,17.48
2023-04-26T11:58:58.448Z,17.13
2023-04-26T12:04:03.441Z,17.02
2023-04-26T12:09:07.034Z,17.22
2023-04-26T12:14:11.638Z,17.40
2023-04-26T12:19:17.366Z,17.42
2023-04-26T12:24:25.541Z,17.36
2023-04-26T12:29:30.847Z,17.94
2023-04-26T12:34:35.866Z,18.40
2023-04-26T12:39:39.425Z,18.35
2023-04-26T12:44:42.995Z,17.84
2023-04-26T12:49:47.891Z,17.60
2023-04-26T12:54:51.477Z,17.50
2023-04-26T12:59:56.165Z,17.51
2023-04-26T13:05:04.665Z,17.38
2023-04-26T13:10:13.109Z,17.29
2023-04-26T13:15:17.726Z,17.44
2023-04-26T13:20:25.440Z,17.44
2023-04-26T13:25:29.708Z,17.28
2023-04-26T13:30:33.298Z,17.23
2023-04-26T13:35:38.342Z,17.26
2023-04-26T13:40:41.959Z,17.23
2023-04-26T13:45:45.588Z,17.32
2023-04-26T13:50:50.760Z,17.49
2023-04-26T13:55:54.313Z,17.67
2023-04-26T14:00:58.304Z,17.85
2023-04-26T14:06:03.711Z,18.21
2023-04-26T14:11:08.045Z,18.31
2023-04-26T14:16:13.497Z,18.15
2023-04-26T14:21:18.473Z,18.02
2023-04-26T14:26:23.917Z,17.79
2023-04-26T14:31:28.272Z,17.72
2023-04-26T14:36:33.366Z,17.68
2023-04-26T14:41:37.531Z,17.47
2023-04-26T14:46:41.783Z,17.42
2023-04-26T14:51:46.841Z,17.33
2023-04-26T14:56:51.482Z,17.23
2023-04-26T15:01:55.137Z,17.16
2023-04-26T15:07:00.322Z,17.10
2023-04-26T15:12:04.932Z,17.00
2023-04-26T15:17:08.651Z,16.82
2023-04-26T15:22:13.805Z,16.64
2023-04-26T15:27:17.673Z,16.40
2023-04-26T15:32:21.224Z,16.32
2023-04-26T15:37:26.479Z,16.24
2023-04-26T15:42:30.120Z,16.11
2023-04-26T15:47:35.355Z,16.14
2023-04-26T15:52:40.861Z,16.10
2023-04-26T15:57:44.406Z,15.95
2023-04-26T16:02:48.009Z,15.79
2023-04-26T16:07:53.060Z,15.72
2023-04-26T16:12:56.733Z,15.56
2023-04-26T16:18:00.423Z,15.46
2023-04-26T16:23:05.903Z,15.48
2023-04-26T16:28:11.802Z,15.35
2023-04-26T16:33:15.941Z,15.30
2023-04-26T16:38:20.910Z,15.17
2023-04-26T16:43:24.767Z,15.09
2023-04-26T16:48:28.390Z,14.98
2023-04-26T16:53:33.584Z,14.86
2023-04-26T16:58:37.144Z,14.72
2023-04-26T17:03:41.496Z,14.62
2023-04-26T17:08:46.494Z,14.47
2023-04-26T17:13:49.943Z,14.29
2023-04-26T17:18:53.514Z,14.11
2023-04-26T17:23:58.380Z,13.93
2023-04-26T17:29:01.920Z,13.74
2023-04-26T17:34:05.984Z,13.61
2023-04-26T17:39:10.866Z,13.43
2023-04-26T17:44:14.825Z,13.34
2023-04-26T17:49:18.276Z,13.20
2023-04-26T17:54:24.356Z,13.05
2023-04-26T17:59:27.856Z,12.92
2023-04-26T18:04:31.745Z,12.85
2023-04-26T18:09:37.121Z,12.73
2023-04-26T18:14:45.087Z,12.57
2023-04-26T18:19:48.817Z,12.44
2023-04-26T18:24:53.689Z,12.43
2023-04-26T18:29:57.204Z,12.31
2023-04-26T18:35:00.857Z,12.28
2023-04-26T18:40:07.430Z,12.30
2023-04-26T18:45:11.625Z,12.28
2023-04-26T18:50:15.111Z,12.31
2023-04-26T18:55:20.290Z,12.27
2023-04-26T19:00:24.032Z,12.20
2023-04-26T19:05:27.703Z,12.12
2023-04-26T19:10:32.846Z,12.08
2023-04-26T19:15:36.655Z,11.98
2023-04-26T19:20:40.333Z,11.80
2023-04-26T19:25:45.247Z,11.84
2023-04-26T19:30:48.755Z,11.65
2023-04-26T19:35:52.384Z,11.59
2023-04-26T19:40:57.257Z,11.42
2023-04-26T19:46:00.768Z,11.35
2023-04-26T19:51:04.288Z,11.26
2023-04-26T19:56:11.009Z,11.23
2023-04-26T20:01:14.568Z,11.13
2023-04-26T20:06:18.032Z,11.16
2023-04-26T20:11:22.972Z,11.14
2023-04-26T20:16:26.505Z,11.09
2023-04-26T20:21:30.114Z,10.98
2023-04-26T20:26:35.014Z,10.93
2023-04-26T20:31:38.194Z,10.63
2023-04-26T20:36:41.726Z,10.35
2023-04-26T20:41:46.597Z,10.29
2023-04-26T20:46:49.788Z,10.03
2023-04-26T20:51:53.187Z,9.83
2023-04-26T20:56:58.080Z,9.82
2023-04-26T21:02:01.701Z,9.87
2023-04-26T21:07:05.592Z,9.90
2023-04-26T21:12:10.602Z,9.92
2023-04-26T21:17:14.092Z,9.67
2023-04-26T21:22:17.672Z,9.58
2023-04-26T21:27:22.589Z,9.47
2023-04-26T21:32:26.155Z,9.35
2023-04-26T21:37:29.756Z,9.43
2023-04-26T21:42:34.661Z,9.56
2023-04-26T21:47:38.198Z,9.45
2023-04-26T21:52:42.113Z,9.42
2023-04-26T21:57:47.152Z,9.40
2023-04-26T22:02:51.638Z,9.24
2023-04-26T22:07:55.313Z,9.14
2023-04-26T22:13:00.258Z,9.14
2023-04-26T22:18:03.834Z,8.98
2023-04-26T22:23:07.401Z,8.78
2023-04-26T22:28:12.306Z,8.57
2023-04-26T22:33:15.484Z,8.51
2023-04-26T22:38:18.862Z,8.61
2023-04-26T22:43:23.783Z,8.77
2023-04-26T22:48:27.048Z,8.83
2023-04-26T22:53:30.650Z,8.72
2023-04-26T22:58:35.563Z,8.66
2023-04-26T23:03:39.057Z,8.62
2023-04-26T23:08:42.593Z,8.46
2023-04-26T23:13:49.094Z,8.32
2023-04-26T23:18:52.587Z,8.23
2023-04-26T23:23:56.615Z,8.07
2023-04-26T23:29:01.511Z,8.11
2023-04-26T23:34:04.848Z,8.17
2023-04-26T23:39:09.922Z,8.05
2023-04-26T23:44:14.810Z,8.13
2023-04-26T23:49:18.031Z,8.17
2023-04-26T23:54:21.572Z,8.08
2023-04-26T23:59:26.552Z,8.22
